sensor_id;sensor_type;location;lat;lon;timestamp;P1;durP1;ratioP1;P2;durP2;ratioP2
23745;SDS011;12053;48.878;9.632;2023-05-14T00:00:54;7.53;;;5.68;;
23745;SDS011;12053;48.878;9.632;2023-05-14T00:03:21;6.55;;;5.80;;
23745;SDS011;12053;48.878;9.632;2023-05-14T00:05:48;7.15;;;6.45;;
23745;SDS011;12053;48.878;9.632;2023-05-14T00:08:16;7.65;;;6.40;;
23745;SDS011;12053;48.878;9.632;2023-05-14T00:10:43;9.43;;;6.78;;
23745;SDS011;12053;48.878;9.632;2023-05-14T00:13:10;8.90;;;6.90;;
23745;SDS011;12053;48.878;9.632;2023-05-14T00:15:37;6.85;;;6.15;;
23745;SDS011;12053;48.878;9.632;2023-05-14T00:18:05;7.45;;;6.60;;
23745;SDS011;12053;48.878;9.632;2023-05-14T00:20:32;8.07;;;6.63;;
23745;SDS011;12053;48.878;9.632;2023-05-14T00:22:59;7.20;;;6.22;;
23745;SDS011;12053;48.878;9.632;2023-05-14T00:25:27;7.47;;;6.10;;
23745;SDS011;12053;48.878;9.632;2023-05-14T00:27:54;7.07;;;6.38;;
23745;SDS011;12053;48.878;9.632;2023-05-14T00:30:21;7.10;;;6.05;;
23745;SDS011;12053;48.878;9.632;2023-05-14T00:32:49;7.47;;;6.07;;
23745;SDS011;12053;48.878;9.632;2023-05-14T00:35:16;7.15;;;6.43;;
23745;SDS011;12053;48.878;9.632;2023-05-14T00:37:43;7.22;;;6.53;;
23745;SDS011;12053;48.878;9.632;2023-05-14T00:40:10;7.47;;;6.75;;
23745;SDS011;12053;48.878;9.632;2023-05-14T00:42:38;7.57;;;6.78;;
23745;SDS011;12053;48.878;9.632;2023-05-14T00:45:06;9.70;;;7.25;;
23745;SDS011;12053;48.878;9.632;2023-05-14T00:47:33;9.85;;;7.43;;
23745;SDS011;12053;48.878;9.632;2023-05-14T00:50:01;8.48;;;7.57;;
23745;SDS011;12053;48.878;9.632;2023-05-14T00:52:29;10.18;;;7.78;;
23745;SDS011;12053;48.878;9.632;2023-05-14T00:54:57;9.05;;;7.95;;
23745;SDS011;12053;48.878;9.632;2023-05-14T00:57:24;8.82;;;7.28;;
23745;SDS011;12053;48.878;9.632;2023-05-14T00:59:52;7.93;;;6.95;;
23745;SDS011;12053;48.878;9.632;2023-05-14T01:02:19;7.57;;;6.78;;
23745;SDS011;12053;48.878;9.632;2023-05-14T01:04:46;9.40;;;8.10;;
23745;SDS011;12053;48.878;9.632;2023-05-14T01:10:16;8.95;;;7.78;;
23745;SDS011;12053;48.878;9.632;2023-05-14T01:15:20;9.25;;;7.80;;
23745;SDS011;12053;48.878;9.632;2023-05-14T01:17:52;11.23;;;8.68;;
23745;SDS011;12053;48.878;9.632;2023-05-14T01:22:48;8.73;;;7.82;;
23745;SDS011;12053;48.878;9.632;2023-05-14T01:25:15;11.60;;;8.27;;
23745;SDS011;12053;48.878;9.632;2023-05-14T01:30:28;11.18;;;9.07;;
23745;SDS011;12053;48.878;9.632;2023-05-14T01:32:57;10.38;;;9.23;;
23745;SDS011;12053;48.878;9.632;2023-05-14T01:35:26;10.50;;;8.45;;
23745;SDS011;12053;48.878;9.632;2023-05-14T01:38:00;14.13;;;9.63;;
23745;SDS011;12053;48.878;9.632;2023-05-14T01:40:28;10.70;;;8.85;;
23745;SDS011;12053;48.878;9.632;2023-05-14T01:42:56;13.30;;;9.15;;
23745;SDS011;12053;48.878;9.632;2023-05-14T01:45:23;10.10;;;8.80;;
23745;SDS011;12053;48.878;9.632;2023-05-14T01:47:50;10.50;;;8.43;;
23745;SDS011;12053;48.878;9.632;2023-05-14T01:50:18;10.63;;;8.05;;
23745;SDS011;12053;48.878;9.632;2023-05-14T01:52:45;11.73;;;9.20;;
23745;SDS011;12053;48.878;9.632;2023-05-14T01:55:13;12.30;;;9.15;;
23745;SDS011;12053;48.878;9.632;2023-05-14T01:57:41;11.02;;;9.80;;
23745;SDS011;12053;48.878;9.632;2023-05-14T02:00:08;11.73;;;9.38;;
23745;SDS011;12053;48.878;9.632;2023-05-14T02:02:36;13.60;;;10.48;;
23745;SDS011;12053;48.878;9.632;2023-05-14T02:05:03;12.88;;;10.52;;
23745;SDS011;12053;48.878;9.632;2023-05-14T02:07:32;11.82;;;10.48;;
23745;SDS011;12053;48.878;9.632;2023-05-14T02:09:59;14.00;;;10.60;;
23745;SDS011;12053;48.878;9.632;2023-05-14T02:12:26;14.02;;;10.70;;
23745;SDS011;12053;48.878;9.632;2023-05-14T02:14:53;12.80;;;10.98;;
23745;SDS011;12053;48.878;9.632;2023-05-14T02:17:21;14.02;;;11.27;;
23745;SDS011;12053;48.878;9.632;2023-05-14T02:19:48;11.85;;;9.82;;
23745;SDS011;12053;48.878;9.632;2023-05-14T02:22:15;12.68;;;10.63;;
23745;SDS011;12053;48.878;9.632;2023-05-14T02:24:42;11.52;;;9.82;;
23745;SDS011;12053;48.878;9.632;2023-05-14T02:27:10;10.73;;;9.60;;
23745;SDS011;12053;48.878;9.632;2023-05-14T02:29:38;12.45;;;9.93;;
23745;SDS011;12053;48.878;9.632;2023-05-14T02:32:05;11.60;;;9.95;;
23745;SDS011;12053;48.878;9.632;2023-05-14T02:34:33;12.40;;;10.45;;
23745;SDS011;12053;48.878;9.632;2023-05-14T02:37:00;12.63;;;10.40;;
23745;SDS011;12053;48.878;9.632;2023-05-14T02:39:27;14.13;;;10.10;;
23745;SDS011;12053;48.878;9.632;2023-05-14T02:41:54;14.23;;;10.13;;
23745;SDS011;12053;48.878;9.632;2023-05-14T02:44:21;14.13;;;10.30;;
23745;SDS011;12053;48.878;9.632;2023-05-14T02:46:48;12.60;;;10.25;;
23745;SDS011;12053;48.878;9.632;2023-05-14T02:49:16;14.30;;;11.35;;
23745;SDS011;12053;48.878;9.632;2023-05-14T02:51:43;13.90;;;11.30;;
23745;SDS011;12053;48.878;9.632;2023-05-14T02:54:10;16.15;;;11.27;;
23745;SDS011;12053;48.878;9.632;2023-05-14T02:56:37;16.38;;;11.95;;
23745;SDS011;12053;48.878;9.632;2023-05-14T02:59:04;14.60;;;12.35;;
23745;SDS011;12053;48.878;9.632;2023-05-14T03:01:32;14.40;;;11.98;;
23745;SDS011;12053;48.878;9.632;2023-05-14T03:04:00;17.02;;;12.45;;
23745;SDS011;12053;48.878;9.632;2023-05-14T03:06:27;16.70;;;13.60;;
23745;SDS011;12053;48.878;9.632;2023-05-14T03:08:54;88.85;;;45.58;;
23745;SDS011;12053;48.878;9.632;2023-05-14T03:11:21;62.88;;;33.17;;
23745;SDS011;12053;48.878;9.632;2023-05-14T03:13:49;18.02;;;14.32;;
23745;SDS011;12053;48.878;9.632;2023-05-14T03:16:16;19.63;;;13.98;;
23745;SDS011;12053;48.878;9.632;2023-05-14T03:18:44;15.88;;;13.30;;
23745;SDS011;12053;48.878;9.632;2023-05-14T03:21:11;17.80;;;14.75;;
23745;SDS011;12053;48.878;9.632;2023-05-14T03:23:38;18.60;;;13.85;;
23745;SDS011;12053;48.878;9.632;2023-05-14T03:26:06;21.00;;;15.60;;
23745;SDS011;12053;48.878;9.632;2023-05-14T03:28:33;18.13;;;14.07;;
23745;SDS011;12053;48.878;9.632;2023-05-14T03:31:00;21.02;;;15.23;;
23745;SDS011;12053;48.878;9.632;2023-05-14T03:33:28;16.67;;;13.57;;
23745;SDS011;12053;48.878;9.632;2023-05-14T03:35:55;18.73;;;14.70;;
23745;SDS011;12053;48.878;9.632;2023-05-14T03:38:22;18.77;;;15.18;;
23745;SDS011;12053;48.878;9.632;2023-05-14T03:40:49;19.90;;;14.25;;
23745;SDS011;12053;48.878;9.632;2023-05-14T03:43:17;18.33;;;14.18;;
23745;SDS011;12053;48.878;9.632;2023-05-14T03:45:44;18.00;;;14.60;;
23745;SDS011;12053;48.878;9.632;2023-05-14T03:48:11;22.60;;;14.82;;
23745;SDS011;12053;48.878;9.632;2023-05-14T03:50:38;18.20;;;14.55;;
23745;SDS011;12053;48.878;9.632;2023-05-14T03:53:06;19.80;;;15.20;;
23745;SDS011;12053;48.878;9.632;2023-05-14T03:55:33;20.45;;;14.93;;
23745;SDS011;12053;48.878;9.632;2023-05-14T03:58:01;23.63;;;15.00;;
23745;SDS011;12053;48.878;9.632;2023-05-14T04:00:31;21.00;;;15.13;;
23745;SDS011;12053;48.878;9.632;2023-05-14T04:02:58;19.20;;;15.80;;
23745;SDS011;12053;48.878;9.632;2023-05-14T04:05:25;19.13;;;15.45;;
23745;SDS011;12053;48.878;9.632;2023-05-14T04:07:53;18.83;;;14.93;;
23745;SDS011;12053;48.878;9.632;2023-05-14T04:10:20;20.73;;;15.68;;
23745;SDS011;12053;48.878;9.632;2023-05-14T04:12:47;20.63;;;15.95;;
23745;SDS011;12053;48.878;9.632;2023-05-14T04:15:14;25.17;;;15.20;;
23745;SDS011;12053;48.878;9.632;2023-05-14T04:17:42;18.38;;;14.07;;
23745;SDS011;12053;48.878;9.632;2023-05-14T04:20:09;22.65;;;15.18;;
23745;SDS011;12053;48.878;9.632;2023-05-14T04:22:36;20.33;;;16.10;;
23745;SDS011;12053;48.878;9.632;2023-05-14T04:25:03;20.67;;;15.85;;
23745;SDS011;12053;48.878;9.632;2023-05-14T04:27:32;18.45;;;14.57;;
23745;SDS011;12053;48.878;9.632;2023-05-14T04:29:59;19.70;;;14.57;;
23745;SDS011;12053;48.878;9.632;2023-05-14T04:32:26;16.05;;;13.95;;
23745;SDS011;12053;48.878;9.632;2023-05-14T04:34:55;18.27;;;14.05;;
23745;SDS011;12053;48.878;9.632;2023-05-14T04:37:22;20.88;;;15.48;;
23745;SDS011;12053;48.878;9.632;2023-05-14T04:39:49;18.20;;;14.60;;
23745;SDS011;12053;48.878;9.632;2023-05-14T04:42:16;20.13;;;15.30;;
23745;SDS011;12053;48.878;9.632;2023-05-14T04:44:44;19.55;;;14.10;;
23745;SDS011;12053;48.878;9.632;2023-05-14T04:47:11;19.38;;;15.13;;
23745;SDS011;12053;48.878;9.632;2023-05-14T04:49:38;22.27;;;15.63;;
23745;SDS011;12053;48.878;9.632;2023-05-14T04:52:05;19.05;;;14.63;;
23745;SDS011;12053;48.878;9.632;2023-05-14T04:54:33;20.38;;;14.68;;
23745;SDS011;12053;48.878;9.632;2023-05-14T04:57:00;17.30;;;13.95;;
23745;SDS011;12053;48.878;9.632;2023-05-14T04:59:28;18.88;;;14.25;;
23745;SDS011;12053;48.878;9.632;2023-05-14T05:01:56;18.02;;;13.85;;
23745;SDS011;12053;48.878;9.632;2023-05-14T05:04:23;16.50;;;13.70;;
23745;SDS011;12053;48.878;9.632;2023-05-14T05:06:51;18.58;;;14.45;;
23745;SDS011;12053;48.878;9.632;2023-05-14T05:09:18;16.80;;;12.98;;
23745;SDS011;12053;48.878;9.632;2023-05-14T05:11:45;17.73;;;13.73;;
23745;SDS011;12053;48.878;9.632;2023-05-14T05:14:12;17.27;;;14.45;;
23745;SDS011;12053;48.878;9.632;2023-05-14T05:16:40;19.83;;;15.25;;
23745;SDS011;12053;48.878;9.632;2023-05-14T05:19:07;17.85;;;14.55;;
23745;SDS011;12053;48.878;9.632;2023-05-14T05:21:34;20.25;;;14.40;;
23745;SDS011;12053;48.878;9.632;2023-05-14T05:24:04;17.27;;;14.07;;
23745;SDS011;12053;48.878;9.632;2023-05-14T05:26:31;19.98;;;13.93;;
23745;SDS011;12053;48.878;9.632;2023-05-14T05:29:05;18.58;;;13.43;;
23745;SDS011;12053;48.878;9.632;2023-05-14T05:31:32;19.17;;;13.45;;
23745;SDS011;12053;48.878;9.632;2023-05-14T05:33:59;18.65;;;13.73;;
23745;SDS011;12053;48.878;9.632;2023-05-14T05:36:27;16.10;;;13.35;;
23745;SDS011;12053;48.878;9.632;2023-05-14T05:38:54;17.63;;;14.20;;
23745;SDS011;12053;48.878;9.632;2023-05-14T05:41:21;18.25;;;13.30;;
23745;SDS011;12053;48.878;9.632;2023-05-14T05:43:48;18.35;;;14.25;;
23745;SDS011;12053;48.878;9.632;2023-05-14T05:46:16;16.30;;;13.50;;
23745;SDS011;12053;48.878;9.632;2023-05-14T05:48:43;18.20;;;14.05;;
23745;SDS011;12053;48.878;9.632;2023-05-14T05:51:10;16.60;;;13.30;;
23745;SDS011;12053;48.878;9.632;2023-05-14T05:53:38;17.55;;;13.13;;
23745;SDS011;12053;48.878;9.632;2023-05-14T05:56:05;18.05;;;13.23;;
23745;SDS011;12053;48.878;9.632;2023-05-14T05:58:32;17.83;;;13.88;;
23745;SDS011;12053;48.878;9.632;2023-05-14T06:00:59;18.88;;;12.70;;
23745;SDS011;12053;48.878;9.632;2023-05-14T06:03:26;16.05;;;12.48;;
23745;SDS011;12053;48.878;9.632;2023-05-14T06:05:53;16.27;;;13.05;;
23745;SDS011;12053;48.878;9.632;2023-05-14T06:08:20;19.02;;;13.13;;
23745;SDS011;12053;48.878;9.632;2023-05-14T06:10:48;16.05;;;12.23;;
23745;SDS011;12053;48.878;9.632;2023-05-14T06:13:15;14.57;;;12.20;;
23745;SDS011;12053;48.878;9.632;2023-05-14T06:15:42;12.93;;;11.05;;
23745;SDS011;12053;48.878;9.632;2023-05-14T06:18:09;16.80;;;12.30;;
23745;SDS011;12053;48.878;9.632;2023-05-14T06:20:37;13.38;;;11.40;;
23745;SDS011;12053;48.878;9.632;2023-05-14T06:23:05;16.27;;;11.55;;
23745;SDS011;12053;48.878;9.632;2023-05-14T06:25:33;14.85;;;10.50;;
23745;SDS011;12053;48.878;9.632;2023-05-14T06:28:00;17.20;;;11.57;;
23745;SDS011;12053;48.878;9.632;2023-05-14T06:30:27;13.57;;;10.93;;
23745;SDS011;12053;48.878;9.632;2023-05-14T06:32:54;14.00;;;11.60;;
23745;SDS011;12053;48.878;9.632;2023-05-14T06:35:22;19.27;;;17.30;;
23745;SDS011;12053;48.878;9.632;2023-05-14T06:37:49;13.90;;;12.15;;
23745;SDS011;12053;48.878;9.632;2023-05-14T06:40:17;12.75;;;10.90;;
23745;SDS011;12053;48.878;9.632;2023-05-14T06:42:44;13.57;;;11.45;;
23745;SDS011;12053;48.878;9.632;2023-05-14T06:45:11;14.93;;;12.15;;
23745;SDS011;12053;48.878;9.632;2023-05-14T06:47:38;16.55;;;11.80;;
23745;SDS011;12053;48.878;9.632;2023-05-14T06:50:06;17.52;;;13.55;;
23745;SDS011;12053;48.878;9.632;2023-05-14T06:52:36;14.32;;;11.27;;
23745;SDS011;12053;48.878;9.632;2023-05-14T06:55:03;14.75;;;11.73;;
23745;SDS011;12053;48.878;9.632;2023-05-14T06:57:30;12.50;;;11.20;;
23745;SDS011;12053;48.878;9.632;2023-05-14T06:59:59;15.48;;;11.63;;
23745;SDS011;12053;48.878;9.632;2023-05-14T07:02:28;14.38;;;11.45;;
23745;SDS011;12053;48.878;9.632;2023-05-14T07:04:56;13.85;;;10.98;;
23745;SDS011;12053;48.878;9.632;2023-05-14T07:07:23;12.43;;;11.07;;
23745;SDS011;12053;48.878;9.632;2023-05-14T07:09:50;14.90;;;11.90;;
23745;SDS011;12053;48.878;9.632;2023-05-14T07:12:17;13.13;;;10.48;;
23745;SDS011;12053;48.878;9.632;2023-05-14T07:14:44;12.85;;;11.27;;
23745;SDS011;12053;48.878;9.632;2023-05-14T07:17:12;13.52;;;11.50;;
23745;SDS011;12053;48.878;9.632;2023-05-14T07:19:39;14.70;;;11.52;;
23745;SDS011;12053;48.878;9.632;2023-05-14T07:22:06;14.07;;;9.80;;
23745;SDS011;12053;48.878;9.632;2023-05-14T07:24:33;14.05;;;11.25;;
23745;SDS011;12053;48.878;9.632;2023-05-14T07:27:00;15.32;;;10.98;;
23745;SDS011;12053;48.878;9.632;2023-05-14T07:29:28;12.18;;;10.30;;
23745;SDS011;12053;48.878;9.632;2023-05-14T07:31:55;13.85;;;11.00;;
23745;SDS011;12053;48.878;9.632;2023-05-14T07:34:23;12.25;;;10.23;;
23745;SDS011;12053;48.878;9.632;2023-05-14T07:36:50;12.27;;;10.02;;
23745;SDS011;12053;48.878;9.632;2023-05-14T07:39:17;14.82;;;11.50;;
23745;SDS011;12053;48.878;9.632;2023-05-14T07:41:44;12.73;;;10.93;;
23745;SDS011;12053;48.878;9.632;2023-05-14T07:44:11;12.60;;;10.10;;
23745;SDS011;12053;48.878;9.632;2023-05-14T07:46:39;11.93;;;9.32;;
23745;SDS011;12053;48.878;9.632;2023-05-14T07:49:06;10.93;;;8.88;;
23745;SDS011;12053;48.878;9.632;2023-05-14T07:51:33;10.38;;;8.63;;
23745;SDS011;12053;48.878;9.632;2023-05-14T07:54:00;11.55;;;8.93;;
23745;SDS011;12053;48.878;9.632;2023-05-14T07:56:27;9.80;;;8.20;;
23745;SDS011;12053;48.878;9.632;2023-05-14T07:58:55;10.38;;;8.38;;
23745;SDS011;12053;48.878;9.632;2023-05-14T08:01:22;14.15;;;9.77;;
23745;SDS011;12053;48.878;9.632;2023-05-14T08:03:49;8.35;;;7.15;;
23745;SDS011;12053;48.878;9.632;2023-05-14T08:06:16;8.45;;;6.35;;
23745;SDS011;12053;48.878;9.632;2023-05-14T08:08:46;8.10;;;7.15;;
23745;SDS011;12053;48.878;9.632;2023-05-14T08:11:13;8.48;;;6.57;;
23745;SDS011;12053;48.878;9.632;2023-05-14T08:13:40;7.30;;;6.43;;
23745;SDS011;12053;48.878;9.632;2023-05-14T08:16:07;7.80;;;7.00;;
23745;SDS011;12053;48.878;9.632;2023-05-14T08:18:35;10.88;;;7.43;;
23745;SDS011;12053;48.878;9.632;2023-05-14T08:21:02;8.20;;;6.20;;
23745;SDS011;12053;48.878;9.632;2023-05-14T08:23:29;7.00;;;6.15;;
23745;SDS011;12053;48.878;9.632;2023-05-14T08:25:56;7.38;;;6.25;;
23745;SDS011;12053;48.878;9.632;2023-05-14T08:28:24;7.35;;;5.35;;
23745;SDS011;12053;48.878;9.632;2023-05-14T08:30:52;6.30;;;5.70;;
23745;SDS011;12053;48.878;9.632;2023-05-14T08:33:19;8.82;;;6.70;;
23745;SDS011;12053;48.878;9.632;2023-05-14T08:35:46;6.85;;;6.05;;
23745;SDS011;12053;48.878;9.632;2023-05-14T08:38:13;10.35;;;5.82;;
23745;SDS011;12053;48.878;9.632;2023-05-14T08:40:40;8.10;;;5.85;;
23745;SDS011;12053;48.878;9.632;2023-05-14T08:43:08;7.15;;;5.43;;
23745;SDS011;12053;48.878;9.632;2023-05-14T08:45:36;6.93;;;5.47;;
23745;SDS011;12053;48.878;9.632;2023-05-14T08:48:05;7.13;;;6.00;;
23745;SDS011;12053;48.878;9.632;2023-05-14T08:50:36;6.97;;;5.55;;
23745;SDS011;12053;48.878;9.632;2023-05-14T08:53:03;5.45;;;4.78;;
23745;SDS011;12053;48.878;9.632;2023-05-14T08:55:31;5.75;;;4.95;;
23745;SDS011;12053;48.878;9.632;2023-05-14T08:57:59;9.20;;;5.43;;
23745;SDS011;12053;48.878;9.632;2023-05-14T09:00:26;6.68;;;5.07;;
23745;SDS011;12053;48.878;9.632;2023-05-14T09:02:53;6.07;;;5.38;;
23745;SDS011;12053;48.878;9.632;2023-05-14T09:05:21;5.10;;;4.60;;
23745;SDS011;12053;48.878;9.632;2023-05-14T09:07:49;6.60;;;5.13;;
23745;SDS011;12053;48.878;9.632;2023-05-14T09:10:16;6.85;;;5.55;;
23745;SDS011;12053;48.878;9.632;2023-05-14T09:12:44;5.70;;;4.88;;
23745;SDS011;12053;48.878;9.632;2023-05-14T09:15:11;7.03;;;5.30;;
23745;SDS011;12053;48.878;9.632;2023-05-14T09:17:38;5.72;;;5.13;;
23745;SDS011;12053;48.878;9.632;2023-05-14T09:20:06;6.35;;;4.93;;
23745;SDS011;12053;48.878;9.632;2023-05-14T09:22:35;5.60;;;4.97;;
23745;SDS011;12053;48.878;9.632;2023-05-14T09:25:02;5.63;;;5.05;;
23745;SDS011;12053;48.878;9.632;2023-05-14T09:27:31;5.50;;;4.15;;
23745;SDS011;12053;48.878;9.632;2023-05-14T09:30:11;7.20;;;5.10;;
23745;SDS011;12053;48.878;9.632;2023-05-14T09:32:39;6.70;;;5.00;;
23745;SDS011;12053;48.878;9.632;2023-05-14T09:35:10;7.35;;;4.93;;
23745;SDS011;12053;48.878;9.632;2023-05-14T09:37:39;6.38;;;4.68;;
23745;SDS011;12053;48.878;9.632;2023-05-14T09:40:08;6.15;;;5.32;;
23745;SDS011;12053;48.878;9.632;2023-05-14T09:42:36;6.03;;;4.78;;
23745;SDS011;12053;48.878;9.632;2023-05-14T09:45:03;6.05;;;5.15;;
23745;SDS011;12053;48.878;9.632;2023-05-14T09:47:30;5.50;;;5.00;;
23745;SDS011;12053;48.878;9.632;2023-05-14T09:49:58;6.65;;;5.20;;
23745;SDS011;12053;48.878;9.632;2023-05-14T09:52:25;6.47;;;5.50;;
23745;SDS011;12053;48.878;9.632;2023-05-14T09:54:53;5.47;;;4.97;;
23745;SDS011;12053;48.878;9.632;2023-05-14T09:57:20;5.22;;;4.68;;
23745;SDS011;12053;48.878;9.632;2023-05-14T09:59:47;5.43;;;4.70;;
23745;SDS011;12053;48.878;9.632;2023-05-14T10:02:25;6.88;;;4.70;;
23745;SDS011;12053;48.878;9.632;2023-05-14T10:04:54;5.53;;;5.03;;
23745;SDS011;12053;48.878;9.632;2023-05-14T10:07:26;5.15;;;4.65;;
23745;SDS011;12053;48.878;9.632;2023-05-14T10:09:56;5.45;;;4.47;;
23745;SDS011;12053;48.878;9.632;2023-05-14T10:12:25;4.82;;;4.22;;
23745;SDS011;12053;48.878;9.632;2023-05-14T10:14:55;4.25;;;3.80;;
23745;SDS011;12053;48.878;9.632;2023-05-14T10:17:23;4.63;;;4.13;;
23745;SDS011;12053;48.878;9.632;2023-05-14T10:19:53;6.28;;;4.10;;
23745;SDS011;12053;48.878;9.632;2023-05-14T10:22:23;5.35;;;4.85;;
23745;SDS011;12053;48.878;9.632;2023-05-14T10:24:53;5.03;;;4.53;;
23745;SDS011;12053;48.878;9.632;2023-05-14T10:27:21;5.63;;;4.72;;
23745;SDS011;12053;48.878;9.632;2023-05-14T10:29:52;8.05;;;5.30;;
23745;SDS011;12053;48.878;9.632;2023-05-14T10:32:20;6.35;;;5.30;;
23745;SDS011;12053;48.878;9.632;2023-05-14T10:34:50;5.55;;;4.45;;
23745;SDS011;12053;48.878;9.632;2023-05-14T10:37:22;7.43;;;5.40;;
23745;SDS011;12053;48.878;9.632;2023-05-14T10:39:53;5.20;;;4.70;;
23745;SDS011;12053;48.878;9.632;2023-05-14T10:42:33;5.28;;;4.68;;
23745;SDS011;12053;48.878;9.632;2023-05-14T10:45:02;5.53;;;4.63;;
23745;SDS011;12053;48.878;9.632;2023-05-14T10:47:35;7.53;;;5.63;;
23745;SDS011;12053;48.878;9.632;2023-05-14T10:50:04;6.47;;;5.32;;
23745;SDS011;12053;48.878;9.632;2023-05-14T10:52:32;6.53;;;5.60;;
23745;SDS011;12053;48.878;9.632;2023-05-14T10:55:01;7.38;;;5.20;;
23745;SDS011;12053;48.878;9.632;2023-05-14T10:57:29;5.32;;;4.82;;
23745;SDS011;12053;48.878;9.632;2023-05-14T10:59:58;5.53;;;4.80;;
23745;SDS011;12053;48.878;9.632;2023-05-14T11:07:32;7.07;;;5.78;;
23745;SDS011;12053;48.878;9.632;2023-05-14T11:10:00;6.20;;;5.60;;
23745;SDS011;12053;48.878;9.632;2023-05-14T11:12:28;6.78;;;5.57;;
23745;SDS011;12053;48.878;9.632;2023-05-14T11:14:56;4.90;;;4.47;;
23745;SDS011;12053;48.878;9.632;2023-05-14T11:17:25;5.78;;;5.10;;
23745;SDS011;12053;48.878;9.632;2023-05-14T11:19:52;7.18;;;6.00;;
23745;SDS011;12053;48.878;9.632;2023-05-14T11:22:20;6.00;;;5.40;;
23745;SDS011;12053;48.878;9.632;2023-05-14T11:24:50;6.78;;;5.60;;
23745;SDS011;12053;48.878;9.632;2023-05-14T11:27:17;7.18;;;6.15;;
23745;SDS011;12053;48.878;9.632;2023-05-14T11:29:45;9.30;;;6.32;;
23745;SDS011;12053;48.878;9.632;2023-05-14T11:32:13;7.10;;;6.40;;
23745;SDS011;12053;48.878;9.632;2023-05-14T11:34:41;6.63;;;5.93;;
23745;SDS011;12053;48.878;9.632;2023-05-14T11:37:10;6.97;;;6.13;;
23745;SDS011;12053;48.878;9.632;2023-05-14T11:39:38;8.02;;;6.55;;
23745;SDS011;12053;48.878;9.632;2023-05-14T11:42:10;8.90;;;6.07;;
23745;SDS011;12053;48.878;9.632;2023-05-14T11:44:37;7.70;;;6.00;;
23745;SDS011;12053;48.878;9.632;2023-05-14T11:47:05;6.30;;;5.70;;
23745;SDS011;12053;48.878;9.632;2023-05-14T11:49:32;7.63;;;6.22;;
23745;SDS011;12053;48.878;9.632;2023-05-14T11:52:04;8.40;;;6.55;;
23745;SDS011;12053;48.878;9.632;2023-05-14T11:54:32;6.25;;;5.35;;
23745;SDS011;12053;48.878;9.632;2023-05-14T11:57:01;6.18;;;5.43;;
23745;SDS011;12053;48.878;9.632;2023-05-14T11:59:32;7.32;;;5.38;;
23745;SDS011;12053;48.878;9.632;2023-05-14T12:02:00;7.55;;;5.55;;
23745;SDS011;12053;48.878;9.632;2023-05-14T12:04:27;6.50;;;5.55;;
23745;SDS011;12053;48.878;9.632;2023-05-14T12:06:56;6.80;;;5.50;;
23745;SDS011;12053;48.878;9.632;2023-05-14T12:09:23;6.30;;;5.38;;
23745;SDS011;12053;48.878;9.632;2023-05-14T12:11:51;7.10;;;5.00;;
23745;SDS011;12053;48.878;9.632;2023-05-14T12:14:22;5.75;;;4.40;;
23745;SDS011;12053;48.878;9.632;2023-05-14T12:16:49;5.68;;;4.50;;
23745;SDS011;12053;48.878;9.632;2023-05-14T12:19:18;6.68;;;4.93;;
23745;SDS011;12053;48.878;9.632;2023-05-14T12:21:47;6.32;;;5.18;;
23745;SDS011;12053;48.878;9.632;2023-05-14T12:24:16;6.15;;;4.88;;
23745;SDS011;12053;48.878;9.632;2023-05-14T12:26:45;7.07;;;4.90;;
23745;SDS011;12053;48.878;9.632;2023-05-14T12:29:13;4.75;;;4.30;;
23745;SDS011;12053;48.878;9.632;2023-05-14T12:31:47;4.63;;;4.22;;
23745;SDS011;12053;48.878;9.632;2023-05-14T12:34:15;5.57;;;4.35;;
23745;SDS011;12053;48.878;9.632;2023-05-14T12:36:42;4.20;;;3.80;;
23745;SDS011;12053;48.878;9.632;2023-05-14T12:39:10;4.65;;;4.20;;
23745;SDS011;12053;48.878;9.632;2023-05-14T12:41:37;5.18;;;4.30;;
23745;SDS011;12053;48.878;9.632;2023-05-14T12:44:05;5.68;;;4.32;;
23745;SDS011;12053;48.878;9.632;2023-05-14T12:46:32;5.20;;;4.70;;
23745;SDS011;12053;48.878;9.632;2023-05-14T12:48:59;7.15;;;4.78;;
23745;SDS011;12053;48.878;9.632;2023-05-14T12:51:27;4.82;;;4.40;;
23745;SDS011;12053;48.878;9.632;2023-05-14T12:53:54;5.50;;;4.25;;
23745;SDS011;12053;48.878;9.632;2023-05-14T12:56:22;5.38;;;3.90;;
23745;SDS011;12053;48.878;9.632;2023-05-14T12:58:54;4.70;;;3.95;;
23745;SDS011;12053;48.878;9.632;2023-05-14T13:01:22;5.00;;;4.22;;
23745;SDS011;12053;48.878;9.632;2023-05-14T13:03:49;4.72;;;3.63;;
23745;SDS011;12053;48.878;9.632;2023-05-14T13:06:17;4.40;;;3.90;;
23745;SDS011;12053;48.878;9.632;2023-05-14T13:08:44;4.05;;;3.30;;
23745;SDS011;12053;48.878;9.632;2023-05-14T13:11:11;3.85;;;3.50;;
23745;SDS011;12053;48.878;9.632;2023-05-14T13:13:38;3.60;;;3.25;;
23745;SDS011;12053;48.878;9.632;2023-05-14T13:16:06;6.10;;;3.28;;
23745;SDS011;12053;48.878;9.632;2023-05-14T13:18:33;3.70;;;3.40;;
23745;SDS011;12053;48.878;9.632;2023-05-14T13:21:01;3.45;;;3.15;;
23745;SDS011;12053;48.878;9.632;2023-05-14T13:23:31;3.28;;;2.67;;
23745;SDS011;12053;48.878;9.632;2023-05-14T13:25:58;4.07;;;3.20;;
23745;SDS011;12053;48.878;9.632;2023-05-14T13:28:26;6.30;;;3.17;;
23745;SDS011;12053;48.878;9.632;2023-05-14T13:33:36;4.32;;;3.00;;
23745;SDS011;12053;48.878;9.632;2023-05-14T13:36:03;3.75;;;3.30;;
23745;SDS011;12053;48.878;9.632;2023-05-14T13:38:31;3.33;;;3.03;;
23745;SDS011;12053;48.878;9.632;2023-05-14T13:40:58;3.83;;;3.30;;
23745;SDS011;12053;48.878;9.632;2023-05-14T13:43:29;3.97;;;3.50;;
23745;SDS011;12053;48.878;9.632;2023-05-14T13:45:56;3.17;;;2.88;;
23745;SDS011;12053;48.878;9.632;2023-05-14T13:48:24;4.82;;;3.75;;
23745;SDS011;12053;48.878;9.632;2023-05-14T13:50:52;3.88;;;3.22;;
23745;SDS011;12053;48.878;9.632;2023-05-14T13:53:19;5.25;;;4.18;;
23745;SDS011;12053;48.878;9.632;2023-05-14T13:55:48;5.78;;;4.00;;
23745;SDS011;12053;48.878;9.632;2023-05-14T13:58:16;4.03;;;3.35;;
23745;SDS011;12053;48.878;9.632;2023-05-14T14:00:43;5.85;;;4.40;;
23745;SDS011;12053;48.878;9.632;2023-05-14T14:03:10;6.95;;;4.57;;
23745;SDS011;12053;48.878;9.632;2023-05-14T14:05:37;5.90;;;4.55;;
23745;SDS011;12053;48.878;9.632;2023-05-14T14:08:04;5.40;;;4.90;;
23745;SDS011;12053;48.878;9.632;2023-05-14T14:10:48;4.65;;;3.90;;
23745;SDS011;12053;48.878;9.632;2023-05-14T14:13:16;5.43;;;4.50;;
23745;SDS011;12053;48.878;9.632;2023-05-14T14:15:43;7.20;;;4.47;;
23745;SDS011;12053;48.878;9.632;2023-05-14T14:18:10;5.70;;;3.97;;
23745;SDS011;12053;48.878;9.632;2023-05-14T14:20:38;4.45;;;4.05;;
23745;SDS011;12053;48.878;9.632;2023-05-14T14:23:05;5.00;;;4.50;;
23745;SDS011;12053;48.878;9.632;2023-05-14T14:25:32;5.03;;;4.55;;
23745;SDS011;12053;48.878;9.632;2023-05-14T14:27:59;5.57;;;5.07;;
23745;SDS011;12053;48.878;9.632;2023-05-14T14:30:27;20.73;;;11.98;;
23745;SDS011;12053;48.878;9.632;2023-05-14T14:32:54;8.13;;;5.22;;
23745;SDS011;12053;48.878;9.632;2023-05-14T14:35:22;4.50;;;4.10;;
23745;SDS011;12053;48.878;9.632;2023-05-14T14:37:49;6.38;;;3.80;;
23745;SDS011;12053;48.878;9.632;2023-05-14T14:40:18;3.90;;;3.50;;
23745;SDS011;12053;48.878;9.632;2023-05-14T14:42:47;5.88;;;3.83;;
23745;SDS011;12053;48.878;9.632;2023-05-14T14:45:15;4.97;;;3.88;;
23745;SDS011;12053;48.878;9.632;2023-05-14T14:47:43;4.85;;;3.58;;
23745;SDS011;12053;48.878;9.632;2023-05-14T14:50:11;4.78;;;3.63;;
23745;SDS011;12053;48.878;9.632;2023-05-14T14:52:39;4.20;;;3.80;;
23745;SDS011;12053;48.878;9.632;2023-05-14T14:55:11;4.70;;;3.65;;
23745;SDS011;12053;48.878;9.632;2023-05-14T14:57:38;4.60;;;3.90;;